Time;durP1;ratioP1;P1;durP2;ratioP2;P2;SDS_P1;SDS_P2;PMS_P1;PMS_P2;Temp;Humidity;BMP_temperature;BMP_pressure;BME280_temperature;BME280_humidity;BME280_pressure;Samples;Min_cycle;Max_cycle;Signal;HPM_P1;HPM_P2
2023/08/27 00:01:31;;;;;;;1.38;1.27;;;23.70;99.90;;;;;;5044036;28;20189;-70
2023/08/27 00:03:57;;;;;;;1.08;1.05;;;23.70;99.90;;;;;;5037355;28;20183;-71
2023/08/27 00:06:23;;;;;;;1.40;1.30;;;23.70;99.90;;;;;;5045809;28;20720;-70
2023/08/27 00:08:50;;;;;;;1.40;1.30;;;23.70;99.90;;;;;;5050503;28;20190;-70
2023/08/27 00:11:15;;;;;;;1.50;1.40;;;23.70;99.90;;;;;;5033665;28;20183;-70
2023/08/27 00:13:41;;;;;;;1.20;1.20;;;23.70;99.90;;;;;;5033817;28;20280;-70
2023/08/27 00:16:07;;;;;;;1.63;1.52;;;23.70;99.90;;;;;;5037415;28;20221;-70
2023/08/27 00:18:33;;;;;;;1.55;1.45;;;23.70;99.90;;;;;;5052912;28;20193;-70
2023/08/27 00:20:58;;;;;;;1.80;1.70;;;23.70;99.90;;;;;;5035968;28;20190;-70
2023/08/27 00:23:24;;;;;;;1.45;1.35;;;23.70;99.90;;;;;;5050227;28;20232;-70
2023/08/27 00:25:51;;;;;;;1.50;1.40;;;23.70;99.90;;;;;;5032425;28;20569;-70
2023/08/27 00:28:16;;;;;;;1.60;1.50;;;23.70;99.90;;;;;;5040583;28;20245;-70
2023/08/27 00:30:43;;;;;;;1.50;1.38;;;23.70;99.90;;;;;;5033614;28;20194;-70
2023/08/27 00:33:08;;;;;;;1.63;1.52;;;23.70;99.90;;;;;;5047547;28;20187;-68
2023/08/27 00:35:36;;;;;;;1.40;1.30;;;23.70;99.90;;;;;;5028704;28;20254;-70
2023/08/27 00:38:02;;;;;;;1.50;1.40;;;23.70;99.90;;;;;;5032768;28;20187;-71
2023/08/27 00:40:29;;;;;;;1.70;1.60;;;23.70;99.90;;;;;;5032186;28;20194;-71
2023/08/27 00:42:56;;;;;;;1.50;1.40;;;23.70;99.90;;;;;;5048575;28;20666;-71
2023/08/27 00:45:22;;;;;;;1.63;1.52;;;23.70;99.90;;;;;;5015920;28;20730;-70
2023/08/27 00:47:48;;;;;;;1.60;1.50;;;23.70;99.90;;;;;;5027107;28;20186;-71
2023/08/27 00:50:15;;;;;;;1.50;1.40;;;23.70;99.90;;;;;;5044005;28;20286;-71
2023/08/27 00:52:42;;;;;;;1.50;1.40;;;23.70;99.90;;;;;;5035057;28;20187;-70
2023/08/27 00:55:08;;;;;;;1.65;1.55;;;23.70;99.90;;;;;;5031638;28;20199;-70
2023/08/27 00:57:38;;;;;;;1.60;1.40;;;23.70;99.90;;;;;;5031767;28;20182;-70
2023/08/27 01:00:09;;;;;;;1.73;1.63;;;23.70;99.90;;;;;;5014806;28;20187;-70
2023/08/27 01:02:37;;;;;;;2.35;1.90;;;23.70;99.90;;;;;;5027837;28;20187;-70
2023/08/27 01:05:05;;;;;;;1.63;1.52;;;23.70;99.90;;;;;;5031558;28;20188;-71
2023/08/27 01:08:04;;;;;;;1.58;1.48;;;23.70;99.90;;;;;;5036649;28;20188;-70
2023/08/27 01:11:01;;;;;;;1.80;1.70;;;23.60;99.90;;;;;;5018738;28;20183;-70
2023/08/27 01:13:39;;;;;;;1.80;1.40;;;23.70;99.90;;;;;;5029679;28;20191;-70
2023/08/27 01:16:07;;;;;;;1.60;1.50;;;23.70;99.90;;;;;;5011963;28;20621;-70
2023/08/27 01:18:35;;;;;;;1.60;1.50;;;23.70;99.90;;;;;;5043161;28;20193;-71
2023/08/27 01:21:27;;;;;;;1.75;1.65;;;23.70;99.90;;;;;;5033679;28;20187;-70
2023/08/27 01:23:53;;;;;;;2.13;2.03;;;23.70;99.90;;;;;;5015248;28;20685;-70
2023/08/27 01:26:35;;;;;;;1.90;1.80;;;23.60;99.90;;;;;;5051107;28;20214;-70
2023/08/27 01:29:19;;;;;;;2.00;1.90;;;23.70;99.90;;;;;;5031726;28;20191;-70
2023/08/27 01:32:23;;;;;;;2.30;1.50;;;23.60;99.90;;;;;;5014736;28;20183;-70
2023/08/27 01:34:52;;;;;;;1.90;1.80;;;23.60;99.90;;;;;;5031090;28;20192;-70
2023/08/27 01:37:19;;;;;;;1.67;1.58;;;23.70;99.90;;;;;;5031126;28;20191;-71
2023/08/27 01:39:44;;;;;;;1.67;1.58;;;23.70;99.90;;;;;;5022789;28;20209;-70
2023/08/27 01:42:12;;;;;;;1.67;1.58;;;23.70;99.90;;;;;;5032198;28;20191;-70
2023/08/27 01:44:38;;;;;;;1.80;1.70;;;23.70;99.90;;;;;;5038504;28;20273;-71
2023/08/27 01:47:05;;;;;;;1.83;1.73;;;23.60;99.90;;;;;;5050532;28;20247;-70
2023/08/27 01:49:31;;;;;;;2.17;1.75;;;23.60;99.90;;;;;;5045216;28;20238;-70
2023/08/27 01:51:57;;;;;;;1.60;1.50;;;23.70;99.90;;;;;;5034048;28;20187;-71
2023/08/27 01:54:23;;;;;;;1.95;1.70;;;23.60;99.90;;;;;;5034010;28;20186;-70
2023/08/27 01:56:50;;;;;;;1.90;1.80;;;23.60;99.90;;;;;;5041605;28;20207;-70
2023/08/27 01:59:16;;;;;;;1.80;1.70;;;23.60;99.90;;;;;;5018856;28;20236;-70
2023/08/27 02:01:43;;;;;;;1.92;1.75;;;23.60;99.90;;;;;;5031116;28;20199;-70
2023/08/27 02:04:09;;;;;;;1.90;1.80;;;23.60;99.90;;;;;;5047043;28;20195;-70
2023/08/27 02:06:35;;;;;;;1.80;1.70;;;23.60;99.90;;;;;;5011054;28;20242;-71
2023/08/27 02:09:01;;;;;;;2.10;1.90;;;23.60;99.90;;;;;;5026357;28;20214;-70
2023/08/27 02:11:28;;;;;;;1.60;1.50;;;23.60;99.90;;;;;;5011891;28;20180;-70
2023/08/27 02:13:54;;;;;;;1.70;1.60;;;23.60;99.90;;;;;;5012302;28;20196;-70
2023/08/27 02:16:20;;;;;;;1.95;1.70;;;23.60;99.90;;;;;;5030817;28;20215;-71
2023/08/27 02:18:46;;;;;;;1.50;1.40;;;23.60;99.90;;;;;;5023258;28;20200;-71
2023/08/27 02:21:11;;;;;;;1.70;1.60;;;23.60;99.90;;;;;;5014094;28;20240;-70
2023/08/27 02:23:37;;;;;;;1.70;1.60;;;23.60;99.90;;;;;;5021913;28;20195;-70
2023/08/27 02:26:03;;;;;;;1.88;1.77;;;23.60;99.90;;;;;;5030003;28;20269;-71
2023/08/27 02:28:29;;;;;;;2.42;1.80;;;23.60;99.90;;;;;;5030350;28;20191;-70
2023/08/27 02:30:55;;;;;;;1.80;1.70;;;23.60;99.90;;;;;;4997642;28;20180;-70
2023/08/27 02:33:22;;;;;;;1.88;1.77;;;23.60;99.90;;;;;;5013613;28;20262;-70
2023/08/27 02:35:48;;;;;;;1.60;1.50;;;23.70;99.90;;;;;;5005691;28;20207;-70
2023/08/27 02:38:14;;;;;;;2.03;1.83;;;23.60;99.90;;;;;;5022220;28;20278;-70
2023/08/27 02:40:40;;;;;;;1.77;1.60;;;23.60;99.90;;;;;;5022446;28;20270;-70
2023/08/27 02:43:07;;;;;;;1.58;1.48;;;23.60;99.90;;;;;;5013753;28;20195;-70
2023/08/27 02:45:33;;;;;;;2.10;2.00;;;23.60;99.90;;;;;;5030179;28;20225;-70
2023/08/27 02:47:58;;;;;;;1.95;1.85;;;23.60;99.90;;;;;;5014093;28;20191;-70
2023/08/27 02:50:24;;;;;;;2.00;1.73;;;23.60;99.90;;;;;;5030666;28;20277;-70
2023/08/27 02:52:50;;;;;;;1.85;1.75;;;23.60;99.90;;;;;;5025762;28;20195;-71
2023/08/27 02:55:16;;;;;;;1.70;1.60;;;23.60;99.90;;;;;;5017280;28;20213;-71
2023/08/27 02:57:42;;;;;;;1.77;1.67;;;23.60;99.90;;;;;;5033500;28;20183;-70
2023/08/27 03:00:08;;;;;;;1.85;1.75;;;23.60;99.90;;;;;;5013178;28;20191;-70
2023/08/27 03:02:34;;;;;;;1.83;1.73;;;23.60;99.90;;;;;;5030045;28;20179;-70
2023/08/27 03:05:04;;;;;;;1.85;1.75;;;23.60;99.90;;;;;;5026450;28;20188;-70
2023/08/27 03:07:30;;;;;;;1.75;1.65;;;23.60;99.90;;;;;;5024556;28;20207;-71
2023/08/27 03:09:56;;;;;;;1.88;1.77;;;23.60;99.90;;;;;;5011045;28;20207;-70
2023/08/27 03:12:22;;;;;;;1.55;1.45;;;23.60;99.90;;;;;;5013673;28;20180;-71
2023/08/27 03:14:48;;;;;;;1.67;1.58;;;23.60;99.90;;;;;;5029681;28;20241;-70
2023/08/27 03:17:14;;;;;;;1.60;1.50;;;23.60;99.90;;;;;;5010298;28;20192;-70
2023/08/27 03:19:39;;;;;;;1.83;1.73;;;23.60;99.90;;;;;;5013602;28;20242;-71
2023/08/27 03:22:06;;;;;;;1.75;1.65;;;23.60;99.90;;;;;;5013687;28;20207;-71
2023/08/27 03:24:32;;;;;;;1.70;1.60;;;23.60;99.90;;;;;;5021803;28;20233;-70
2023/08/27 03:26:58;;;;;;;1.83;1.73;;;23.60;99.90;;;;;;5028834;28;20222;-70
2023/08/27 03:29:24;;;;;;;2.00;1.90;;;23.60;99.90;;;;;;5006793;28;20187;-71
2023/08/27 03:31:51;;;;;;;1.83;1.73;;;23.60;99.90;;;;;;5010664;28;20184;-71
2023/08/27 03:34:17;;;;;;;1.60;1.50;;;23.60;99.90;;;;;;5038399;28;20180;-70
2023/08/27 03:36:43;;;;;;;2.38;1.90;;;23.60;99.90;;;;;;5009983;28;20220;-71
2023/08/27 03:39:08;;;;;;;2.13;1.80;;;23.60;99.90;;;;;;5016159;28;20187;-70
2023/08/27 03:41:34;;;;;;;1.65;1.55;;;23.60;99.90;;;;;;5033455;28;20253;-70
2023/08/27 03:44:01;;;;;;;1.45;1.35;;;23.60;99.90;;;;;;5030952;28;20192;-70
2023/08/27 03:46:27;;;;;;;1.73;1.63;;;23.60;99.90;;;;;;5017032;28;20207;-71
2023/08/27 03:48:53;;;;;;;1.60;1.50;;;23.60;99.90;;;;;;5008770;28;20184;-70
2023/08/27 03:51:19;;;;;;;1.70;1.60;;;23.60;99.90;;;;;;5025297;28;20186;-71
2023/08/27 03:53:45;;;;;;;1.40;1.30;;;23.60;99.90;;;;;;5016655;28;20194;-70
2023/08/27 03:56:10;;;;;;;1.70;1.60;;;23.60;99.90;;;;;;5000195;28;20216;-70
2023/08/27 03:58:36;;;;;;;1.48;1.38;;;23.60;99.90;;;;;;5003138;28;20185;-70
2023/08/27 04:01:02;;;;;;;1.60;1.50;;;23.60;99.90;;;;;;5030637;28;20202;-70
2023/08/27 04:03:28;;;;;;;1.50;1.40;;;23.60;99.90;;;;;;5033131;28;20254;-70
2023/08/27 04:05:54;;;;;;;1.50;1.40;;;23.60;99.90;;;;;;5032806;28;20319;-71
2023/08/27 04:08:20;;;;;;;1.10;1.10;;;23.60;99.90;;;;;;5025024;28;20187;-71
2023/08/27 04:10:53;;;;;;;1.50;1.40;;;23.60;99.90;;;;;;5025790;28;20263;-71
2023/08/27 04:13:20;;;;;;;1.50;1.40;;;23.60;99.90;;;;;;5045875;28;20190;-70
2023/08/27 04:15:59;;;;;;;1.52;1.42;;;23.60;99.90;;;;;;5027770;28;20207;-70
2023/08/27 04:18:27;;;;;;;1.30;1.30;;;23.60;99.90;;;;;;5026471;28;20195;-71
2023/08/27 04:20:54;;;;;;;1.40;1.30;;;23.60;99.90;;;;;;5032577;28;20203;-71
2023/08/27 04:23:19;;;;;;;1.70;1.60;;;23.60;99.90;;;;;;5028521;28;20192;-71
2023/08/27 04:25:46;;;;;;;1.10;1.10;;;23.60;99.90;;;;;;5027469;28;20211;-71
2023/08/27 04:28:14;;;;;;;1.42;1.33;;;23.60;99.90;;;;;;5013719;28;20279;-71
2023/08/27 04:30:41;;;;;;;1.60;1.50;;;23.60;99.90;;;;;;5012782;28;20218;-70
2023/08/27 04:33:07;;;;;;;1.50;1.40;;;23.60;99.90;;;;;;5015934;28;20191;-70
2023/08/27 04:35:33;;;;;;;1.25;1.20;;;23.50;99.90;;;;;;5015590;28;20207;-70
2023/08/27 04:38:00;;;;;;;1.40;1.30;;;23.60;99.90;;;;;;5015813;28;20215;-70
2023/08/27 04:40:25;;;;;;;1.55;1.45;;;23.60;99.90;;;;;;5032333;28;20202;-71
2023/08/27 04:42:51;;;;;;;1.38;1.27;;;23.60;99.90;;;;;;5033521;28;20191;-70
2023/08/27 04:45:18;;;;;;;1.52;1.30;;;23.60;99.90;;;;;;5015288;28;20241;-70
2023/08/27 04:47:44;;;;;;;1.50;1.40;;;23.50;99.90;;;;;;5046620;28;20187;-70
2023/08/27 04:50:10;;;;;;;1.25;1.15;;;23.60;99.90;;;;;;5051589;28;20191;-70
2023/08/27 04:52:36;;;;;;;1.00;1.00;;;23.60;99.90;;;;;;5037369;28;20186;-70
2023/08/27 04:55:06;;;;;;;1.27;1.25;;;23.60;99.90;;;;;;5035280;28;20195;-70
2023/08/27 04:57:36;;;;;;;1.50;1.40;;;23.60;99.90;;;;;;5027283;28;20197;-71
2023/08/27 05:00:08;;;;;;;1.25;1.20;;;23.60;99.90;;;;;;5015721;28;20194;-70
2023/08/27 05:02:35;;;;;;;1.30;1.20;;;23.60;99.90;;;;;;5041528;28;20278;-70
2023/08/27 05:05:03;;;;;;;1.10;1.10;;;23.60;99.90;;;;;;5031671;28;20202;-70
2023/08/27 05:07:29;;;;;;;1.25;1.17;;;23.60;99.90;;;;;;5039954;28;20218;-70
2023/08/27 05:09:55;;;;;;;1.30;1.20;;;23.60;99.90;;;;;;5036477;28;20215;-70
2023/08/27 05:12:21;;;;;;;1.30;1.20;;;23.60;99.90;;;;;;5039743;28;20188;-70
2023/08/27 05:14:47;;;;;;;1.48;1.38;;;23.60;99.90;;;;;;5037657;28;20190;-70
2023/08/27 05:17:12;;;;;;;1.25;1.15;;;23.60;99.90;;;;;;5043043;28;20319;-70
2023/08/27 05:19:38;;;;;;;1.38;1.23;;;23.60;99.90;;;;;;5018618;28;20198;-71
2023/08/27 05:22:05;;;;;;;1.30;1.20;;;23.60;99.90;;;;;;5028756;28;20217;-70
2023/08/27 05:24:31;;;;;;;1.15;1.15;;;23.60;99.90;;;;;;5051267;28;20272;-70
2023/08/27 05:26:58;;;;;;;1.10;1.10;;;23.60;99.90;;;;;;5019098;28;20215;-70
2023/08/27 05:29:23;;;;;;;1.38;1.10;;;23.60;99.90;;;;;;5042662;28;20182;-70
2023/08/27 05:31:49;;;;;;;1.20;1.20;;;23.60;99.90;;;;;;5036839;28;20186;-70
2023/08/27 05:34:15;;;;;;;1.20;1.08;;;23.50;99.90;;;;;;5047361;28;20190;-70
2023/08/27 05:36:41;;;;;;;1.08;1.08;;;23.60;99.90;;;;;;5039740;28;20716;-70
2023/08/27 05:39:08;;;;;;;0.98;0.98;;;23.60;99.90;;;;;;5022977;28;20197;-70
2023/08/27 05:41:34;;;;;;;1.17;1.08;;;23.60;99.90;;;;;;5035392;28;20186;-70
2023/08/27 05:43:59;;;;;;;1.00;1.00;;;23.60;99.90;;;;;;5042615;28;20186;-71
2023/08/27 05:46:25;;;;;;;1.10;1.10;;;23.60;99.90;;;;;;5042564;28;20248;-70
2023/08/27 05:48:51;;;;;;;1.27;1.27;;;23.60;99.90;;;;;;5019681;28;20217;-71
2023/08/27 05:51:17;;;;;;;1.40;1.30;;;23.60;99.90;;;;;;5043156;28;20255;-67
2023/08/27 05:53:43;;;;;;;1.20;1.10;;;23.60;99.90;;;;;;5023032;28;20191;-72
2023/08/27 05:56:09;;;;;;;0.90;0.90;;;23.60;99.90;;;;;;5050363;28;20307;-73
2023/08/27 05:58:35;;;;;;;1.73;1.00;;;23.60;99.90;;;;;;5031356;28;20337;-70
2023/08/27 06:01:02;;;;;;;0.90;0.90;;;23.60;99.90;;;;;;5014647;28;20234;-70
2023/08/27 06:03:29;;;;;;;1.25;1.15;;;23.50;99.90;;;;;;5049848;28;20680;-71
2023/08/27 06:05:54;;;;;;;1.10;1.00;;;23.60;99.90;;;;;;5044102;28;20250;-71
2023/08/27 06:08:20;;;;;;;0.95;0.95;;;23.50;99.90;;;;;;5054246;28;20188;-70
2023/08/27 06:10:46;;;;;;;1.65;1.20;;;23.50;99.90;;;;;;5021112;28;20184;-70
2023/08/27 06:13:12;;;;;;;0.90;0.90;;;23.50;99.90;;;;;;5009734;28;20192;-70
2023/08/27 06:15:37;;;;;;;1.00;1.00;;;23.50;99.90;;;;;;5029620;28;20207;-70
2023/08/27 06:18:05;;;;;;;1.05;0.95;;;23.60;99.90;;;;;;5027653;28;20192;-70
2023/08/27 06:20:33;;;;;;;1.00;1.00;;;23.60;99.90;;;;;;5030518;28;20253;-70
2023/08/27 06:23:00;;;;;;;0.93;0.93;;;23.50;99.90;;;;;;5045718;28;20186;-70
2023/08/27 06:25:26;;;;;;;1.20;1.10;;;23.50;99.90;;;;;;5022672;28;20207;-70
2023/08/27 06:27:58;;;;;;;0.98;0.98;;;23.60;99.90;;;;;;5037024;28;20276;-70
2023/08/27 06:30:24;;;;;;;1.02;1.00;;;23.60;99.90;;;;;;5041988;28;20183;-70
2023/08/27 06:32:50;;;;;;;1.05;1.05;;;23.60;99.90;;;;;;5036137;28;20183;-71
2023/08/27 06:35:17;;;;;;;1.10;1.00;;;23.60;99.90;;;;;;5047737;28;20266;-71
2023/08/27 06:37:43;;;;;;;1.00;0.90;;;23.60;99.90;;;;;;5050171;28;20192;-70
2023/08/27 06:40:11;;;;;;;1.23;1.00;;;23.50;99.90;;;;;;5033235;28;20178;-70
2023/08/27 06:42:37;;;;;;;1.23;1.13;;;23.50;99.90;;;;;;5030230;28;20179;-70
2023/08/27 06:45:07;;;;;;;1.13;0.93;;;23.50;99.90;;;;;;5037756;28;20206;-70
2023/08/27 06:47:33;;;;;;;0.90;0.90;;;23.50;99.90;;;;;;5022005;28;20215;-71
2023/08/27 06:49:59;;;;;;;1.15;1.08;;;23.50;99.90;;;;;;5026000;28;20191;-70
2023/08/27 06:52:25;;;;;;;0.93;0.93;;;23.60;99.90;;;;;;5036944;28;20213;-70
2023/08/27 06:54:51;;;;;;;1.10;1.00;;;23.60;99.90;;;;;;5030064;28;20207;-71
2023/08/27 06:57:17;;;;;;;1.25;1.15;;;23.60;99.90;;;;;;5036908;28;20196;-70
2023/08/27 06:59:43;;;;;;;1.15;1.15;;;23.60;99.90;;;;;;5020985;28;20183;-71
2023/08/27 07:02:10;;;;;;;1.25;1.17;;;23.50;99.90;;;;;;5018458;28;20187;-70
2023/08/27 07:04:35;;;;;;;1.05;1.00;;;23.60;99.90;;;;;;5037724;28;20182;-70
2023/08/27 07:07:02;;;;;;;1.00;1.00;;;23.60;99.90;;;;;;5050154;28;20244;-71
2023/08/27 07:09:28;;;;;;;1.30;1.30;;;23.60;99.90;;;;;;5049713;28;20186;-70
2023/08/27 07:11:54;;;;;;;1.08;0.98;;;23.60;99.90;;;;;;5037437;28;20244;-71
2023/08/27 07:14:20;;;;;;;0.77;0.77;;;23.60;99.90;;;;;;5037216;28;20182;-70
2023/08/27 07:16:46;;;;;;;1.08;1.08;;;23.60;99.90;;;;;;5045821;28;20229;-70
2023/08/27 07:19:11;;;;;;;1.27;1.17;;;23.60;99.90;;;;;;5045740;28;20195;-70
2023/08/27 07:21:37;;;;;;;1.20;1.10;;;23.60;99.90;;;;;;5028859;28;20195;-70
2023/08/27 07:24:04;;;;;;;1.33;1.20;;;23.60;99.90;;;;;;5037253;28;20281;-70
2023/08/27 07:26:29;;;;;;;1.05;1.00;;;23.60;99.90;;;;;;5027868;28;20305;-70
2023/08/27 07:28:56;;;;;;;1.10;1.10;;;23.60;99.90;;;;;;5041008;28;20193;-70
2023/08/27 07:31:22;;;;;;;0.93;0.93;;;23.60;99.90;;;;;;5044238;28;20178;-70
2023/08/27 07:33:48;;;;;;;1.20;1.13;;;23.60;99.90;;;;;;5028869;28;20228;-70
2023/08/27 07:36:14;;;;;;;1.17;0.88;;;23.60;99.90;;;;;;5017534;28;20223;-70
2023/08/27 07:38:41;;;;;;;1.27;1.17;;;23.60;99.90;;;;;;5047317;28;20190;-70
2023/08/27 07:41:09;;;;;;;1.10;1.00;;;23.60;99.90;;;;;;5045457;28;20190;-70
2023/08/27 07:43:35;;;;;;;1.13;1.13;;;23.60;99.90;;;;;;5028804;28;20194;-70
2023/08/27 07:46:01;;;;;;;0.98;0.98;;;23.60;99.90;;;;;;5028653;28;20233;-71
2023/08/27 07:48:27;;;;;;;1.50;1.40;;;23.60;99.90;;;;;;5038559;28;20546;-70
2023/08/27 07:50:53;;;;;;;1.23;1.15;;;23.60;99.90;;;;;;5021645;28;20562;-70
2023/08/27 07:53:20;;;;;;;1.08;1.05;;;23.60;99.90;;;;;;5024658;28;20193;-70
2023/08/27 07:55:45;;;;;;;1.00;1.00;;;23.60;99.90;;;;;;5029467;28;20206;-69
2023/08/27 07:58:11;;;;;;;1.27;1.17;;;23.60;99.90;;;;;;5036690;28;20201;-70
2023/08/27 08:00:37;;;;;;;1.20;1.10;;;23.60;99.90;;;;;;5041965;28;20217;-70
2023/08/27 08:03:03;;;;;;;1.30;1.20;;;23.60;99.90;;;;;;5027590;28;20187;-70
2023/08/27 08:05:29;;;;;;;1.17;1.17;;;23.60;99.90;;;;;;5042508;28;20261;-70
2023/08/27 08:07:55;;;;;;;1.20;1.10;;;23.60;99.90;;;;;;5046894;28;20210;-70
2023/08/27 08:10:21;;;;;;;1.38;1.27;;;23.60;99.90;;;;;;5045613;28;20195;-70
2023/08/27 08:12:47;;;;;;;1.40;1.10;;;23.60;99.90;;;;;;5045893;28;20194;-70
2023/08/27 08:15:14;;;;;;;1.50;1.40;;;23.60;99.90;;;;;;5047147;28;20213;-70
2023/08/27 08:17:40;;;;;;;0.95;0.95;;;23.60;99.90;;;;;;5050503;28;20198;-70
2023/08/27 08:20:07;;;;;;;1.50;1.40;;;23.60;99.90;;;;;;5040961;28;20207;-70
2023/08/27 08:22:33;;;;;;;1.50;1.40;;;23.60;99.90;;;;;;5040302;28;20186;-70
2023/08/27 08:24:58;;;;;;;1.30;1.20;;;23.60;99.90;;;;;;5020513;28;20183;-69
2023/08/27 08:27:24;;;;;;;1.90;1.25;;;23.50;99.90;;;;;;5041449;28;20211;-69
2023/08/27 08:29:50;;;;;;;1.00;1.00;;;23.60;99.90;;;;;;5051687;28;20189;-69
2023/08/27 08:32:16;;;;;;;1.23;1.13;;;23.60;99.90;;;;;;5044251;28;20186;-68
2023/08/27 08:34:42;;;;;;;1.17;1.13;;;23.60;99.90;;;;;;5038806;28;20183;-69
2023/08/27 08:37:08;;;;;;;1.25;1.15;;;23.60;99.90;;;;;;5034553;28;20206;-69
2023/08/27 08:39:34;;;;;;;1.40;1.30;;;23.60;99.90;;;;;;5036561;28;20187;-69
2023/08/27 08:42:19;;;;;;;1.48;1.38;;;23.50;99.90;;;;;;5022579;28;20197;-69
2023/08/27 08:45:24;;;;;;;1.55;1.45;;;23.60;99.90;;;;;;5026926;28;20273;-69
2023/08/27 08:47:53;;;;;;;1.60;1.50;;;23.60;99.90;;;;;;5039979;28;20223;-69
2023/08/27 08:50:21;;;;;;;1.48;1.38;;;23.60;99.90;;;;;;5041385;28;20277;-69
2023/08/27 08:52:50;;;;;;;1.98;1.25;;;23.60;99.90;;;;;;5010980;28;20273;-70
2023/08/27 08:55:18;;;;;;;2.28;1.38;;;23.60;99.90;;;;;;5028881;28;20243;-69
2023/08/27 08:57:51;;;;;;;2.72;1.90;;;23.60;99.90;;;;;;5051080;28;20197;-70
2023/08/27 09:00:18;;;;;;;6.28;2.15;;;23.60;99.90;;;;;;5044437;28;20283;-70
2023/08/27 09:02:46;;;;;;;4.03;1.80;;;23.60;99.90;;;;;;5018148;28;20186;-69
2023/08/27 09:05:12;;;;;;;4.85;2.33;;;23.60;99.90;;;;;;5034863;28;20233;-69
2023/08/27 09:07:40;;;;;;;4.28;2.17;;;23.60;99.90;;;;;;5050768;28;20228;-69
2023/08/27 09:10:10;;;;;;;4.07;2.15;;;23.60;99.90;;;;;;5022574;28;20214;-69
2023/08/27 09:12:40;;;;;;;4.72;2.70;;;23.60;99.90;;;;;;5027992;28;20215;-69
2023/08/27 09:15:10;;;;;;;3.80;2.03;;;23.60;99.90;;;;;;5026700;28;20663;-69
2023/08/27 09:17:37;;;;;;;4.55;2.20;;;23.60;99.90;;;;;;5041430;28;20191;-70
2023/08/27 09:20:04;;;;;;;6.95;2.05;;;23.60;99.90;;;;;;5027906;28;20248;-69
2023/08/27 09:22:31;;;;;;;4.20;2.13;;;23.60;99.90;;;;;;5037785;28;20188;-69
2023/08/27 09:24:57;;;;;;;3.92;2.05;;;23.60;99.90;;;;;;5033564;28;20197;-69
2023/08/27 09:27:24;;;;;;;4.55;2.55;;;23.60;99.90;;;;;;5014378;28;20211;-69
2023/08/27 09:29:51;;;;;;;4.38;2.30;;;23.60;99.90;;;;;;5034780;28;20186;-69
2023/08/27 09:32:21;;;;;;;4.10;2.15;;;23.60;99.90;;;;;;5026240;28;20289;-68
2023/08/27 09:34:48;;;;;;;5.05;2.25;;;23.60;99.90;;;;;;5043445;28;20179;-67
2023/08/27 09:37:13;;;;;;;4.25;2.40;;;23.60;99.90;;;;;;5036377;28;20187;-69
2023/08/27 09:39:44;;;;;;;3.22;2.28;;;23.60;99.90;;;;;;5024795;28;20208;-69
2023/08/27 09:42:12;;;;;;;3.85;2.55;;;23.60;99.90;;;;;;5037967;28;20210;-67
2023/08/27 09:44:38;;;;;;;2.85;1.95;;;23.60;99.90;;;;;;5047422;28;20218;-68
2023/08/27 09:47:06;;;;;;;3.58;2.00;;;23.60;99.90;;;;;;5014562;28;20218;-68
2023/08/27 09:49:32;;;;;;;5.45;2.38;;;23.60;99.90;;;;;;5028534;28;20651;-69
2023/08/27 09:51:58;;;;;;;3.05;2.22;;;23.60;99.90;;;;;;5032276;28;20195;-69
2023/08/27 09:54:30;;;;;;;4.32;2.20;;;23.60;99.90;;;;;;5031887;28;20197;-69
2023/08/27 09:56:59;;;;;;;3.17;1.90;;;23.60;99.90;;;;;;5040330;28;20246;-69
2023/08/27 09:59:26;;;;;;;2.03;1.90;;;23.60;99.90;;;;;;5040419;28;20214;-70
2023/08/27 10:01:53;;;;;;;3.42;2.00;;;23.60;99.90;;;;;;5042151;28;20641;-69
2023/08/27 10:04:21;;;;;;;4.68;2.10;;;23.60;99.90;;;;;;5036497;28;20654;-69
2023/08/27 10:06:48;;;;;;;3.22;2.17;;;23.60;99.90;;;;;;5030548;28;20215;-69
2023/08/27 10:09:16;;;;;;;3.20;2.42;;;23.60;99.90;;;;;;5044888;28;20183;-69
2023/08/27 10:11:45;;;;;;;3.90;2.15;;;23.60;99.90;;;;;;5042177;28;20179;-69
2023/08/27 10:14:16;;;;;;;4.25;2.20;;;23.60;99.90;;;;;;5042209;28;20182;-69
2023/08/27 10:16:42;;;;;;;3.70;2.45;;;23.60;99.90;;;;;;5042344;28;20690;-69
2023/08/27 10:19:09;;;;;;;3.30;2.35;;;23.70;99.90;;;;;;5050504;28;20194;-68
2023/08/27 10:21:36;;;;;;;6.05;2.20;;;23.60;99.90;;;;;;5025193;28;20186;-69
2023/08/27 10:24:03;;;;;;;4.00;2.53;;;23.60;99.90;;;;;;5043070;28;20190;-68
2023/08/27 10:26:30;;;;;;;2.45;2.03;;;23.70;99.90;;;;;;5042408;28;20363;-69
2023/08/27 10:28:58;;;;;;;3.00;2.35;;;23.60;99.90;;;;;;5030745;28;20198;-69
2023/08/27 10:31:24;;;;;;;3.78;2.10;;;23.60;99.90;;;;;;5040075;28;20187;-69
2023/08/27 10:33:50;;;;;;;2.58;1.70;;;23.60;99.90;;;;;;5049359;28;20186;-69
2023/08/27 10:36:23;;;;;;;2.60;2.10;;;23.60;99.90;;;;;;5025571;28;20206;-69
2023/08/27 10:38:50;;;;;;;4.88;2.60;;;23.60;99.90;;;;;;5042471;28;20228;-69
2023/08/27 10:41:20;;;;;;;2.58;2.10;;;23.60;99.90;;;;;;5042159;28;20205;-68
2023/08/27 10:43:46;;;;;;;3.53;2.15;;;23.60;99.90;;;;;;5050139;28;20283;-68
2023/08/27 10:46:17;;;;;;;3.35;2.00;;;23.60;99.90;;;;;;5026198;28;20238;-69
2023/08/27 10:48:52;;;;;;;3.38;2.40;;;23.60;99.90;;;;;;5044497;28;20260;-69
2023/08/27 10:51:21;;;;;;;2.50;2.08;;;23.60;99.90;;;;;;5044716;28;20299;-70
2023/08/27 10:53:49;;;;;;;2.30;1.88;;;23.60;99.90;;;;;;5029611;28;20178;-69
2023/08/27 10:56:36;;;;;;;4.15;2.10;;;23.60;99.90;;;;;;5029760;28;20205;-69
2023/08/27 10:59:06;;;;;;;3.28;2.25;;;23.60;99.90;;;;;;5054311;28;20224;-69
2023/08/27 11:01:54;;;;;;;3.03;2.13;;;23.70;99.90;;;;;;5045799;28;20534;-69
2023/08/27 11:04:20;;;;;;;4.50;2.30;;;23.70;99.90;;;;;;5037126;28;20304;-69
2023/08/27 11:06:48;;;;;;;3.88;2.03;;;23.70;99.90;;;;;;5051868;28;20263;-68
2023/08/27 11:09:25;;;;;;;2.85;2.20;;;23.70;99.90;;;;;;5053938;28;20178;-69
2023/08/27 11:11:59;;;;;;;2.45;2.25;;;23.60;99.90;;;;;;5051785;28;20179;-69
2023/08/27 11:14:26;;;;;;;2.30;1.80;;;23.60;99.90;;;;;;5042191;28;20213;-69
2023/08/27 11:17:00;;;;;;;3.75;2.20;;;23.70;99.90;;;;;;5052819;28;20205;-68
2023/08/27 11:19:31;;;;;;;2.13;1.80;;;23.60;99.90;;;;;;5054022;28;20206;-68
2023/08/27 11:22:12;;;;;;;3.58;2.20;;;23.60;99.90;;;;;;5045536;28;20191;-69
2023/08/27 11:24:52;;;;;;;3.25;1.80;;;23.60;99.90;;;;;;5054845;28;20186;-68
2023/08/27 11:27:20;;;;;;;2.47;1.70;;;23.60;99.90;;;;;;5045482;28;20198;-69
2023/08/27 11:29:49;;;;;;;3.67;2.15;;;23.70;99.90;;;;;;5027658;28;20243;-69
2023/08/27 11:32:16;;;;;;;1.95;1.80;;;23.60;99.90;;;;;;5047146;28;20175;-69
2023/08/27 11:34:49;;;;;;;2.45;2.10;;;23.60;99.90;;;;;;5045224;28;20183;-69
2023/08/27 11:37:17;;;;;;;3.25;2.13;;;23.60;99.90;;;;;;5045586;28;20240;-69
2023/08/27 11:39:43;;;;;;;3.25;1.98;;;23.60;99.90;;;;;;5051423;28;20182;-69
2023/08/27 11:42:15;;;;;;;3.22;1.90;;;23.70;99.90;;;;;;5045178;28;20666;-69
2023/08/27 11:44:48;;;;;;;3.38;1.92;;;23.70;99.90;;;;;;5046082;28;20179;-69
2023/08/27 11:47:14;;;;;;;2.47;1.98;;;23.70;99.90;;;;;;5046248;28;20202;-70
2023/08/27 11:49:40;;;;;;;3.05;2.00;;;23.70;99.90;;;;;;5045199;28;20183;-68
2023/08/27 11:52:06;;;;;;;3.22;1.83;;;23.70;99.90;;;;;;5048117;28;20193;-68
2023/08/27 11:54:34;;;;;;;3.08;1.73;;;23.70;99.90;;;;;;5028126;28;20650;-69
2023/08/27 11:57:04;;;;;;;2.80;2.08;;;23.70;99.90;;;;;;5040712;28;20301;-68
2023/08/27 11:59:31;;;;;;;2.53;2.10;;;23.70;99.90;;;;;;5048790;28;20190;-69
2023/08/27 12:01:57;;;;;;;2.83;2.17;;;23.70;99.90;;;;;;5044851;28;20195;-68
2023/08/27 12:04:31;;;;;;;2.22;2.03;;;23.70;99.90;;;;;;5048097;28;20171;-68
2023/08/27 12:07:01;;;;;;;2.47;1.70;;;23.70;99.90;;;;;;5042053;28;20221;-69
2023/08/27 12:09:35;;;;;;;2.63;1.90;;;23.70;99.90;;;;;;5042249;28;20699;-68
2023/08/27 12:12:07;;;;;;;2.80;2.03;;;23.70;99.90;;;;;;5052700;28;20197;-69
2023/08/27 12:14:36;;;;;;;2.67;1.85;;;23.70;99.90;;;;;;5044493;28;20194;-68
2023/08/27 12:17:08;;;;;;;2.15;1.60;;;23.70;99.90;;;;;;5041675;28;20247;-69
2023/08/27 12:19:36;;;;;;;2.33;1.92;;;23.70;99.90;;;;;;5048318;28;20195;-68
2023/08/27 12:22:02;;;;;;;3.05;1.70;;;23.70;99.90;;;;;;5025163;28;20187;-68
2023/08/27 12:24:44;;;;;;;2.40;1.80;;;23.70;99.90;;;;;;5047275;28;20192;-68
2023/08/27 12:27:17;;;;;;;2.40;2.00;;;23.70;99.90;;;;;;5032919;28;20224;-68
2023/08/27 12:29:45;;;;;;;2.10;1.80;;;23.70;99.90;;;;;;5022111;28;20174;-69
2023/08/27 12:32:14;;;;;;;2.83;1.60;;;23.70;99.90;;;;;;5048598;28;20552;-69
2023/08/27 12:34:45;;;;;;;2.45;1.85;;;23.70;99.90;;;;;;5048479;28;20179;-68
2023/08/27 12:37:12;;;;;;;2.08;1.88;;;23.70;99.90;;;;;;5032919;28;20238;-68
2023/08/27 12:39:40;;;;;;;1.92;1.73;;;23.70;99.90;;;;;;5048589;28;20195;-68
2023/08/27 12:42:07;;;;;;;2.15;1.75;;;23.60;99.90;;;;;;5045215;28;20179;-69
2023/08/27 12:44:34;;;;;;;2.47;1.95;;;23.60;99.90;;;;;;5045219;28;20179;-68
2023/08/27 12:47:01;;;;;;;3.45;1.70;;;23.60;99.90;;;;;;5050969;28;20293;-68
2023/08/27 12:49:28;;;;;;;1.73;1.63;;;23.60;99.90;;;;;;5046879;28;20217;-69
2023/08/27 12:51:54;;;;;;;1.90;1.70;;;23.50;99.90;;;;;;5025927;28;20190;-69